createdAt,value
2023-03-17T00:01:44.849Z,10.20
2023-03-17T00:04:13.709Z,9.93
2023-03-17T00:06:41.492Z,12.20
2023-03-17T00:09:15.709Z,12.67
2023-03-17T00:11:43.531Z,11.10
2023-03-17T00:14:10.921Z,12.37
2023-03-17T00:16:48.517Z,14.03
2023-03-17T00:19:17.303Z,12.33
2023-03-17T00:21:46.143Z,10.27
2023-03-17T00:24:15.035Z,10.00
2023-03-17T00:26:43.457Z,8.93
2023-03-17T00:29:11.332Z,8.20
2023-03-17T00:31:39.628Z,9.03
2023-03-17T00:34:08.100Z,9.20
2023-03-17T00:36:35.619Z,8.33
2023-03-17T00:39:03.352Z,8.40
2023-03-17T00:41:31.405Z,10.83
2023-03-17T00:43:58.683Z,10.57
2023-03-17T00:46:28.516Z,12.80
2023-03-17T00:48:55.868Z,12.53
2023-03-17T00:51:23.557Z,11.67
2023-03-17T00:53:51.274Z,13.23
2023-03-17T00:56:20.043Z,12.67
2023-03-17T00:58:47.795Z,13.00
2023-03-17T01:01:15.166Z,12.57
2023-03-17T01:03:42.468Z,11.83
2023-03-17T01:06:11.127Z,11.67
2023-03-17T01:08:39.441Z,9.20
2023-03-17T01:11:07.513Z,10.63
2023-03-17T01:13:35.172Z,8.10
2023-03-17T01:16:02.844Z,10.07
2023-03-17T01:18:31.797Z,11.50
2023-03-17T01:20:59.128Z,11.87
2023-03-17T01:23:27.343Z,11.90
2023-03-17T01:25:54.691Z,10.27
2023-03-17T01:28:22.179Z,9.33
2023-03-17T01:30:50.078Z,7.93
2023-03-17T01:33:17.600Z,7.93
2023-03-17T01:35:46.227Z,8.33
2023-03-17T01:38:13.816Z,7.47
2023-03-17T01:40:47.169Z,7.43
2023-03-17T01:43:21.058Z,8.63
2023-03-17T01:46:07.162Z,7.37
2023-03-17T01:48:41.146Z,8.03
2023-03-17T01:51:09.877Z,8.17
2023-03-17T01:53:38.386Z,8.37
2023-03-17T01:56:06.355Z,8.70
2023-03-17T01:58:34.352Z,8.33
2023-03-17T02:01:02.456Z,7.80
2023-03-17T02:03:29.969Z,8.53
2023-03-17T02:05:58.017Z,7.60
2023-03-17T02:08:26.382Z,8.13
2023-03-17T02:10:54.632Z,7.30
2023-03-17T02:13:23.267Z,8.80
2023-03-17T02:15:51.584Z,10.23
2023-03-17T02:18:19.863Z,9.60
2023-03-17T02:20:47.187Z,8.17
2023-03-17T02:23:18.830Z,9.17
2023-03-17T02:25:47.835Z,11.97
2023-03-17T02:28:17.710Z,8.87
2023-03-17T02:30:45.104Z,9.30
2023-03-17T02:33:12.807Z,10.83
2023-03-17T02:35:41.693Z,10.47
2023-03-17T02:38:09.043Z,10.27
2023-03-17T02:40:36.407Z,9.83
2023-03-17T02:43:05.206Z,8.10
2023-03-17T02:45:32.846Z,9.43
2023-03-17T02:48:00.276Z,9.97
2023-03-17T02:50:29.480Z,9.83
2023-03-17T02:52:57.190Z,9.60
2023-03-17T02:55:24.436Z,9.77
2023-03-17T02:57:54.927Z,8.70
2023-03-17T03:00:22.460Z,10.57
2023-03-17T03:02:49.827Z,14.67
2023-03-17T03:05:17.307Z,16.10
2023-03-17T03:07:44.840Z,14.70
2023-03-17T03:10:12.302Z,14.00
2023-03-17T03:12:40.390Z,12.43
2023-03-17T03:15:09.839Z,11.30
2023-03-17T03:17:37.134Z,11.87
2023-03-17T03:20:05.143Z,11.97
2023-03-17T03:22:32.429Z,9.43
2023-03-17T03:24:59.746Z,9.73
2023-03-17T03:27:27.033Z,9.40
2023-03-17T03:29:54.364Z,10.70
2023-03-17T03:32:21.687Z,11.77
2023-03-17T03:34:49.307Z,12.60
2023-03-17T03:37:17.372Z,11.47
2023-03-17T03:39:44.887Z,12.53
2023-03-17T03:42:12.423Z,9.47
2023-03-17T03:44:39.819Z,10.80
2023-03-17T03:47:07.766Z,16.97
2023-03-17T03:49:35.111Z,13.10
2023-03-17T03:52:03.312Z,13.60
2023-03-17T03:54:30.798Z,13.00
2023-03-17T03:56:58.231Z,18.37
2023-03-17T03:59:25.660Z,15.37
2023-03-17T04:01:53.402Z,17.63
2023-03-17T04:04:20.818Z,22.33
2023-03-17T04:06:48.137Z,17.23
2023-03-17T04:09:16.465Z,15.10
2023-03-17T04:11:43.888Z,22.43
2023-03-17T04:14:11.193Z,23.00
2023-03-17T04:16:38.612Z,25.20
2023-03-17T04:19:06.979Z,22.00
2023-03-17T04:21:34.635Z,18.80
2023-03-17T04:24:02.623Z,23.10
2023-03-17T04:26:30.029Z,21.73
2023-03-17T04:28:57.927Z,19.63
2023-03-17T04:31:26.013Z,15.63
2023-03-17T04:33:53.622Z,10.80
2023-03-17T04:36:22.249Z,13.07
2023-03-17T04:38:49.761Z,11.90
2023-03-17T04:41:17.106Z,16.27
2023-03-17T04:43:44.887Z,18.17
2023-03-17T04:46:12.363Z,19.10
2023-03-17T04:48:40.184Z,14.90
2023-03-17T04:51:09.788Z,12.97
2023-03-17T04:53:38.744Z,12.57
2023-03-17T04:56:06.421Z,12.27
2023-03-17T04:58:33.872Z,12.60
2023-03-17T05:01:02.577Z,10.00
2023-03-17T05:03:30.279Z,13.03
2023-03-17T05:05:58.421Z,12.20
2023-03-17T05:08:26.687Z,13.83
2023-03-17T05:10:54.855Z,13.27
2023-03-17T05:13:22.701Z,13.33
2023-03-17T05:15:53.906Z,11.13
2023-03-17T05:18:22.393Z,15.03
2023-03-17T05:20:49.692Z,12.43
2023-03-17T05:23:16.982Z,13.37
2023-03-17T05:25:44.320Z,14.63
2023-03-17T05:28:11.579Z,13.63
2023-03-17T05:30:39.307Z,16.23
2023-03-17T05:33:07.258Z,15.13
2023-03-17T05:35:34.826Z,14.20
2023-03-17T05:38:02.412Z,13.37
2023-03-17T05:40:30.768Z,13.73
2023-03-17T05:42:58.331Z,12.23
2023-03-17T05:45:25.604Z,13.43
2023-03-17T05:47:53.102Z,17.03
2023-03-17T05:50:20.891Z,12.07
2023-03-17T05:52:48.796Z,13.30
2023-03-17T05:55:17.576Z,11.10
2023-03-17T05:57:45.050Z,9.50
2023-03-17T06:00:13.630Z,9.13
2023-03-17T06:02:41.227Z,9.43
2023-03-17T06:05:09.110Z,9.63
2023-03-17T06:07:50.874Z,8.53
2023-03-17T06:10:20.765Z,13.37
2023-03-17T06:12:48.597Z,10.77
2023-03-17T06:15:17.214Z,10.83
2023-03-17T06:17:44.790Z,10.83
2023-03-17T06:20:13.174Z,12.47
2023-03-17T06:22:55.239Z,10.07
2023-03-17T06:25:27.972Z,10.80
2023-03-17T06:27:56.332Z,8.93
2023-03-17T06:30:23.700Z,8.73
2023-03-17T06:32:51.088Z,8.97
2023-03-17T06:35:19.060Z,18.27
2023-03-17T06:37:46.779Z,23.67
2023-03-17T06:40:16.309Z,12.57
2023-03-17T06:42:44.131Z,14.07
2023-03-17T06:45:12.194Z,34.50
2023-03-17T06:47:39.885Z,23.97
2023-03-17T06:50:09.692Z,22.43
2023-03-17T06:52:37.429Z,16.63
2023-03-17T06:55:05.593Z,8.77
2023-03-17T06:57:33.249Z,9.40
2023-03-17T07:00:00.774Z,8.63
2023-03-17T07:02:28.164Z,8.47
2023-03-17T07:04:57.802Z,8.03
2023-03-17T07:07:25.200Z,7.47
2023-03-17T07:09:53.206Z,7.57
2023-03-17T07:12:20.850Z,9.27
2023-03-17T07:14:48.265Z,7.23
2023-03-17T07:17:18.553Z,6.73
2023-03-17T07:19:46.424Z,7.77
2023-03-17T07:22:14.015Z,8.60
2023-03-17T07:24:44.888Z,9.87
2023-03-17T07:27:12.313Z,8.87
2023-03-17T07:29:39.637Z,7.60
2023-03-17T07:32:08.317Z,7.13
2023-03-17T07:34:35.928Z,5.93
2023-03-17T07:37:03.671Z,8.63
2023-03-17T07:39:31.323Z,7.33
2023-03-17T07:41:58.658Z,5.30
2023-03-17T07:44:27.498Z,5.73
2023-03-17T07:46:54.934Z,8.67
2023-03-17T07:49:38.030Z,5.00
2023-03-17T07:52:08.936Z,6.53
2023-03-17T07:54:37.113Z,11.47
2023-03-17T07:57:05.195Z,8.13
2023-03-17T07:59:32.857Z,5.93
2023-03-17T08:02:01.733Z,8.47
2023-03-17T08:04:29.656Z,6.63
2023-03-17T08:06:57.740Z,6.63
2023-03-17T08:09:25.154Z,6.37
2023-03-17T08:11:52.715Z,3.63
2023-03-17T08:14:20.707Z,4.27
2023-03-17T08:16:48.246Z,5.40
2023-03-17T08:19:16.301Z,3.83
2023-03-17T08:21:43.797Z,3.63
2023-03-17T08:24:11.139Z,4.43
2023-03-17T08:26:38.427Z,3.80
2023-03-17T08:29:05.659Z,4.33
2023-03-17T08:31:34.110Z,5.07
2023-03-17T08:34:02.819Z,4.80
2023-03-17T08:36:30.804Z,5.73
2023-03-17T08:38:58.076Z,3.53
2023-03-17T08:41:27.281Z,4.43
2023-03-17T08:43:54.674Z,7.67
2023-03-17T08:46:23.857Z,4.00
2023-03-17T08:48:52.666Z,5.50
2023-03-17T08:51:24.067Z,5.50
2023-03-17T08:53:52.515Z,5.27
2023-03-17T08:56:20.174Z,5.53
2023-03-17T08:58:47.833Z,11.50
2023-03-17T09:01:15.673Z,14.60
2023-03-17T09:03:43.579Z,6.53
2023-03-17T09:06:12.473Z,2.67
2023-03-17T09:08:45.079Z,5.43
2023-03-17T09:11:13.930Z,7.77
2023-03-17T09:13:41.553Z,3.87
2023-03-17T09:16:09.082Z,5.40
2023-03-17T09:18:36.484Z,4.73
2023-03-17T09:21:04.113Z,7.93
2023-03-17T09:23:31.579Z,6.90
2023-03-17T09:25:59.462Z,8.23
2023-03-17T09:28:27.252Z,7.83
2023-03-17T09:30:58.634Z,6.13
2023-03-17T09:33:25.987Z,4.87
2023-03-17T09:35:54.481Z,4.67
2023-03-17T09:38:22.928Z,4.47
2023-03-17T09:40:54.657Z,4.20
2023-03-17T09:43:27.235Z,4.93
2023-03-17T09:45:56.145Z,8.27
2023-03-17T09:48:34.781Z,5.57
2023-03-17T09:51:02.199Z,4.33
2023-03-17T09:53:38.673Z,4.43
2023-03-17T09:56:12.363Z,5.27
2023-03-17T09:58:41.795Z,2.93
2023-03-17T10:01:09.818Z,2.93
2023-03-17T10:03:37.697Z,2.47
2023-03-17T10:06:23.760Z,3.20
2023-03-17T10:09:14.145Z,2.37
2023-03-17T10:11:42.321Z,2.17
2023-03-17T10:14:19.780Z,4.23
2023-03-17T10:16:58.851Z,4.33
2023-03-17T10:19:27.358Z,4.90
2023-03-17T10:21:59.068Z,2.83
2023-03-17T10:24:27.701Z,2.03
2023-03-17T10:26:58.039Z,2.90
2023-03-17T10:29:25.632Z,1.60
2023-03-17T10:31:55.221Z,1.95
2023-03-17T10:34:29.188Z,1.92
2023-03-17T10:37:00.398Z,1.40
2023-03-17T10:39:28.289Z,5.30
2023-03-17T10:41:57.868Z,2.75
2023-03-17T10:44:34.751Z,1.17
2023-03-17T10:47:02.325Z,3.17
2023-03-17T10:49:33.065Z,1.27
2023-03-17T10:52:00.865Z,1.80
2023-03-17T10:54:28.911Z,3.45
2023-03-17T10:57:01.524Z,2.55
2023-03-17T10:59:33.588Z,2.67
2023-03-17T11:02:02.285Z,3.55
2023-03-17T11:04:37.307Z,4.97
2023-03-17T11:07:18.533Z,3.30
2023-03-17T11:09:50.745Z,1.40
2023-03-17T11:12:29.246Z,1.95
2023-03-17T11:15:06.306Z,1.65
2023-03-17T11:17:46.104Z,2.63
2023-03-17T11:20:13.660Z,1.80
2023-03-17T11:22:41.700Z,2.38
2023-03-17T11:25:25.605Z,2.88
2023-03-17T11:27:55.464Z,1.52
2023-03-17T11:30:29.566Z,2.17
2023-03-17T11:33:01.070Z,2.50
2023-03-17T11:35:31.673Z,1.52
2023-03-17T11:38:14.318Z,2.55
2023-03-17T11:40:51.583Z,1.70
2023-03-17T11:43:22.133Z,1.17
2023-03-17T11:45:52.600Z,3.17
2023-03-17T11:48:35.203Z,1.77
2023-03-17T11:51:06.864Z,1.10
2023-03-17T11:53:52.803Z,1.67
2023-03-17T11:56:39.103Z,1.27
2023-03-17T11:59:12.087Z,1.73
2023-03-17T12:01:54.875Z,2.22
2023-03-17T12:04:38.012Z,2.08
2023-03-17T12:07:08.653Z,1.65
2023-03-17T12:09:40.071Z,1.73
2023-03-17T12:12:08.197Z,1.55
2023-03-17T12:14:53.420Z,2.80
2023-03-17T12:17:29.093Z,2.65
2023-03-17T12:20:18.485Z,2.65
2023-03-17T12:22:57.259Z,4.18
2023-03-17T12:25:28.573Z,1.52
2023-03-17T12:28:15.929Z,2.40
2023-03-17T12:31:02.370Z,1.35
2023-03-17T12:33:38.835Z,1.60
2023-03-17T12:36:06.955Z,1.75
2023-03-17T12:38:39.623Z,1.45
2023-03-17T12:41:08.194Z,4.40
2023-03-17T12:43:37.138Z,2.08
2023-03-17T12:46:14.380Z,1.98
2023-03-17T12:48:42.589Z,1.40
2023-03-17T12:51:10.410Z,2.97
2023-03-17T12:53:40.078Z,4.63
2023-03-17T12:56:12.706Z,2.10
2023-03-17T12:58:41.953Z,1.83
2023-03-17T13:01:09.367Z,2.03
2023-03-17T13:03:38.773Z,2.97
2023-03-17T13:06:08.837Z,2.67
2023-03-17T13:08:38.217Z,3.88
2023-03-17T13:11:26.146Z,1.90
2023-03-17T13:14:12.494Z,2.38
2023-03-17T13:16:44.887Z,2.00
2023-03-17T13:19:27.096Z,2.80
2023-03-17T13:21:54.517Z,2.65
2023-03-17T13:24:23.157Z,2.75
2023-03-17T13:27:02.124Z,1.60
2023-03-17T13:29:32.769Z,2.30
2023-03-17T13:32:18.846Z,1.98
2023-03-17T13:34:50.795Z,3.72
2023-03-17T13:37:41.711Z,1.63
2023-03-17T13:40:11.375Z,3.50
2023-03-17T13:42:44.744Z,2.45
2023-03-17T13:45:19.756Z,5.70
2023-03-17T13:47:47.243Z,2.20
2023-03-17T13:50:16.907Z,3.20
2023-03-17T13:52:47.961Z,2.10
2023-03-17T13:55:18.436Z,2.25
2023-03-17T13:57:57.709Z,2.90
2023-03-17T14:00:29.571Z,3.20
2023-03-17T14:03:02.923Z,2.45
2023-03-17T14:05:38.098Z,2.72
2023-03-17T14:08:08.705Z,3.50
2023-03-17T14:10:37.658Z,4.25
2023-03-17T14:13:25.221Z,2.20
2023-03-17T14:16:08.103Z,2.30
2023-03-17T14:18:36.367Z,3.35
2023-03-17T14:21:09.966Z,4.38
2023-03-17T14:23:38.938Z,4.93
2023-03-17T14:26:08.311Z,3.30
2023-03-17T14:28:36.098Z,3.30
2023-03-17T14:31:05.747Z,4.55
2023-03-17T14:33:34.733Z,4.82
2023-03-17T14:36:04.550Z,3.47
2023-03-17T14:38:33.862Z,5.78
2023-03-17T14:41:16.618Z,3.20
2023-03-17T14:43:44.541Z,5.28
2023-03-17T14:46:24.094Z,4.63
2023-03-17T14:48:53.244Z,3.83
2023-03-17T14:51:49.987Z,4.72
2023-03-17T14:54:22.910Z,4.68
2023-03-17T14:56:59.993Z,3.00
2023-03-17T14:59:32.191Z,3.45
2023-03-17T15:02:00.988Z,3.08
2023-03-17T15:04:29.955Z,3.38
2023-03-17T15:06:59.079Z,6.78
2023-03-17T15:09:37.115Z,4.13
2023-03-17T15:12:04.928Z,6.43
2023-03-17T15:14:32.235Z,5.20
2023-03-17T15:17:02.151Z,3.42
2023-03-17T15:19:32.881Z,5.55
2023-03-17T15:22:00.676Z,8.10
2023-03-17T15:24:38.971Z,10.07
2023-03-17T15:27:07.756Z,4.50
2023-03-17T15:29:35.255Z,9.73
2023-03-17T15:32:04.189Z,6.05
2023-03-17T15:34:31.840Z,5.40
2023-03-17T15:36:59.278Z,6.03
2023-03-17T15:39:26.710Z,6.88
2023-03-17T15:41:54.086Z,3.67
2023-03-17T15:44:21.881Z,8.73
2023-03-17T15:46:49.278Z,4.07
2023-03-17T15:49:16.508Z,8.07
2023-03-17T15:51:43.876Z,6.60
2023-03-17T15:54:13.716Z,5.40
2023-03-17T15:56:43.273Z,3.60
2023-03-17T15:59:10.675Z,4.10
2023-03-17T16:01:39.521Z,4.28
2023-03-17T16:04:08.189Z,4.75
2023-03-17T16:06:36.424Z,6.15
2023-03-17T16:09:04.018Z,3.75
2023-03-17T16:11:32.053Z,4.55
2023-03-17T16:14:00.124Z,4.95
2023-03-17T16:16:35.928Z,8.30
2023-03-17T16:19:04.786Z,2.83
2023-03-17T16:21:32.464Z,3.67
2023-03-17T16:24:01.365Z,4.45
2023-03-17T16:26:28.701Z,2.80
2023-03-17T16:28:56.551Z,6.43
2023-03-17T16:31:23.942Z,4.45
2023-03-17T16:33:52.739Z,5.47
2023-03-17T16:36:20.682Z,4.28
2023-03-17T16:38:49.161Z,3.92
2023-03-17T16:41:21.359Z,4.28
2023-03-17T16:43:53.701Z,3.97
2023-03-17T16:46:21.693Z,4.30
2023-03-17T16:48:49.633Z,2.05
2023-03-17T16:51:17.458Z,4.57
2023-03-17T16:53:45.460Z,5.78
2023-03-17T16:56:17.686Z,6.75
2023-03-17T16:58:45.742Z,3.03
2023-03-17T17:01:21.174Z,3.88
2023-03-17T17:03:49.101Z,4.05
2023-03-17T17:06:16.908Z,2.75
2023-03-17T17:08:48.610Z,3.35
2023-03-17T17:11:16.992Z,3.80
2023-03-17T17:13:45.535Z,8.43
2023-03-17T17:16:18.390Z,9.30
2023-03-17T17:18:47.530Z,46.50
2023-03-17T17:21:15.030Z,22.83
2023-03-17T17:23:42.335Z,8.35
2023-03-17T17:26:09.715Z,5.53
2023-03-17T17:28:40.950Z,5.88
2023-03-17T17:31:09.175Z,4.53
2023-03-17T17:33:37.227Z,3.35
2023-03-17T17:36:06.179Z,3.15
2023-03-17T17:38:33.748Z,2.50
2023-03-17T17:41:06.962Z,6.50
2023-03-17T17:43:34.392Z,8.93
2023-03-17T17:46:02.049Z,11.77
2023-03-17T17:48:29.691Z,10.43
2023-03-17T17:50:57.300Z,9.20
2023-03-17T17:53:26.218Z,8.95
2023-03-17T17:55:53.535Z,6.78
2023-03-17T17:58:22.706Z,4.37
2023-03-17T18:00:50.843Z,6.40
2023-03-17T18:03:22.394Z,8.33
2023-03-17T18:05:49.692Z,14.33
2023-03-17T18:08:17.322Z,11.53
2023-03-17T18:10:44.900Z,10.13
2023-03-17T18:13:12.440Z,8.03
2023-03-17T18:15:39.772Z,9.77
2023-03-17T18:18:07.461Z,7.33
2023-03-17T18:20:35.100Z,7.90
2023-03-17T18:23:03.333Z,6.03
2023-03-17T18:25:30.764Z,7.37
2023-03-17T18:27:58.141Z,17.10
2023-03-17T18:30:26.883Z,15.07
2023-03-17T18:32:55.996Z,23.50
2023-03-17T18:35:25.741Z,21.53
2023-03-17T18:37:53.595Z,30.93
2023-03-17T18:40:21.231Z,15.53
2023-03-17T18:42:48.877Z,7.43
2023-03-17T18:45:16.570Z,6.47
2023-03-17T18:47:44.054Z,4.23
2023-03-17T18:50:13.061Z,3.50
2023-03-17T18:52:41.488Z,4.37
2023-03-17T18:55:10.054Z,4.90
2023-03-17T18:57:37.355Z,3.90
2023-03-17T19:00:06.010Z,4.90
2023-03-17T19:02:33.686Z,5.20
2023-03-17T19:05:01.677Z,5.30
2023-03-17T19:07:28.961Z,5.90
2023-03-17T19:09:56.443Z,5.70
2023-03-17T19:12:23.948Z,6.13
2023-03-17T19:14:52.257Z,5.03
2023-03-17T19:17:19.584Z,6.03
2023-03-17T19:19:47.177Z,10.67
2023-03-17T19:22:14.519Z,14.03
2023-03-17T19:24:42.062Z,12.50
2023-03-17T19:27:09.372Z,13.50
2023-03-17T19:29:36.890Z,17.73
2023-03-17T19:32:04.217Z,21.73
2023-03-17T19:34:31.585Z,21.17
2023-03-17T19:36:58.920Z,17.30
2023-03-17T19:39:26.747Z,12.77
2023-03-17T19:41:55.315Z,15.67
2023-03-17T19:44:22.893Z,14.63
2023-03-17T19:46:50.431Z,13.23
2023-03-17T19:49:19.921Z,12.60
2023-03-17T19:51:47.643Z,12.13
2023-03-17T19:54:15.546Z,11.10
2023-03-17T19:56:42.768Z,13.13
2023-03-17T19:59:10.283Z,11.73
2023-03-17T20:01:38.996Z,12.20
2023-03-17T20:04:11.464Z,11.17
2023-03-17T20:06:38.944Z,8.93
2023-03-17T20:09:08.825Z,11.17
2023-03-17T20:11:36.405Z,10.33
2023-03-17T20:14:04.079Z,14.13
2023-03-17T20:16:34.367Z,11.17
2023-03-17T20:19:02.427Z,8.00
2023-03-17T20:21:29.873Z,11.33
2023-03-17T20:23:57.111Z,21.90
2023-03-17T20:26:24.670Z,14.70
2023-03-17T20:28:54.656Z,17.03
2023-03-17T20:31:22.821Z,13.67
2023-03-17T20:33:50.526Z,16.50
2023-03-17T20:36:18.380Z,12.70
2023-03-17T20:38:46.152Z,13.93
2023-03-17T20:41:14.885Z,14.37
2023-03-17T20:43:42.198Z,16.67
2023-03-17T20:46:13.816Z,13.50
2023-03-17T20:48:41.701Z,19.17
2023-03-17T20:51:15.747Z,23.30
2023-03-17T20:53:46.509Z,22.07
2023-03-17T20:56:15.720Z,19.20
2023-03-17T20:58:45.426Z,15.83
2023-03-17T21:01:12.955Z,15.77
2023-03-17T21:03:41.032Z,14.27
2023-03-17T21:06:08.357Z,14.43
2023-03-17T21:08:36.663Z,11.07
2023-03-17T21:11:04.540Z,11.00
2023-03-17T21:13:32.959Z,10.57
2023-03-17T21:16:01.557Z,11.33
2023-03-17T21:18:29.793Z,10.83
2023-03-17T21:20:57.406Z,12.10
2023-03-17T21:23:24.724Z,12.53
2023-03-17T21:25:56.105Z,10.43
2023-03-17T21:28:23.636Z,9.50
2023-03-17T21:30:50.935Z,9.97
2023-03-17T21:33:18.200Z,10.73
2023-03-17T21:35:46.050Z,11.50
2023-03-17T21:38:13.365Z,10.07
2023-03-17T21:40:40.671Z,8.33
2023-03-17T21:43:07.995Z,7.33
2023-03-17T21:45:35.705Z,8.33
2023-03-17T21:48:04.075Z,16.90
2023-03-17T21:50:32.477Z,30.53
2023-03-17T21:53:00.390Z,23.90
2023-03-17T21:55:27.830Z,22.37
2023-03-17T21:57:55.717Z,14.70
2023-03-17T22:00:23.611Z,14.47
2023-03-17T22:02:52.783Z,12.40
2023-03-17T22:05:20.519Z,12.40
2023-03-17T22:07:48.454Z,10.50
2023-03-17T22:10:15.676Z,17.17
2023-03-17T22:12:43.437Z,11.33
2023-03-17T22:15:12.171Z,14.53
2023-03-17T22:17:40.590Z,11.83
2023-03-17T22:20:09.066Z,14.03
2023-03-17T22:22:36.771Z,15.60
2023-03-17T22:25:06.243Z,13.93
2023-03-17T22:27:33.748Z,12.63
2023-03-17T22:30:01.331Z,17.60
2023-03-17T22:32:28.617Z,15.33
2023-03-17T22:34:56.148Z,14.27
2023-03-17T22:37:24.831Z,14.67
2023-03-17T22:39:52.254Z,14.67
2023-03-17T22:42:20.594Z,10.00
2023-03-17T22:44:47.918Z,7.67
2023-03-17T22:47:15.263Z,7.60
2023-03-17T22:49:42.474Z,5.70
2023-03-17T22:52:09.832Z,6.20
2023-03-17T22:54:37.298Z,3.67
2023-03-17T22:57:05.693Z,3.60
2023-03-17T22:59:33.045Z,5.80
2023-03-17T23:02:00.465Z,4.30
2023-03-17T23:04:27.762Z,3.77
2023-03-17T23:06:56.181Z,4.73
2023-03-17T23:09:23.775Z,4.80
2023-03-17T23:11:51.188Z,5.50
2023-03-17T23:14:21.501Z,3.60
2023-03-17T23:16:49.767Z,4.53
2023-03-17T23:19:17.198Z,4.30
2023-03-17T23:21:45.579Z,3.33
2023-03-17T23:24:12.834Z,5.53
2023-03-17T23:26:41.231Z,3.43
2023-03-17T23:29:10.230Z,4.33
2023-03-17T23:31:38.425Z,3.83
2023-03-17T23:34:06.710Z,3.03
2023-03-17T23:36:35.146Z,3.30
2023-03-17T23:39:03.440Z,4.67
2023-03-17T23:41:31.471Z,2.87
2023-03-17T23:43:59.094Z,3.57
2023-03-17T23:46:28.084Z,3.10
2023-03-17T23:48:55.440Z,4.67
2023-03-17T23:51:23.999Z,5.87
2023-03-17T23:53:52.972Z,3.83
2023-03-17T23:56:20.675Z,4.10
2023-03-17T23:58:49.056Z,3.77
